Terminal Aerodrome Forecast
Issued by NWS Knoxville/Tri Cities, TN

Home | Current Version | Previous Version | Text Only | Print | Product List | Glossary On
Versions: 1 2 3 4 5 6 7 8 9 10 11 12 13 14 15 16 17 18 19 20 21 22 23 24 25 26 27 28
000
FTUS44 KMRX 221120
TAFTYS
TAF
KTYS 221120Z 2212/2312 03003KT P6SM OVC035
     FM221800 04005KT P6SM BKN060
     FM230100 VRB05KT P6SM VCSH SCT025 OVC050
     FM230800 17007KT P6SM VCSH BKN025 OVC050=

USA.gov is the U.S. government's official web portal to all federal, state and local government web resources and services.